ADDS METAR Data INFO
IDs: Format: Raw Decoded Include TAF

Data at: 1532 UTC 18 Jun 2018

KMDW 181453Z 27012G16KT 10SM FEW065 SCT250 31/24 A2998 RMK AO2 SLP138 T03110239 50003
KMDW 181353Z 25011G19KT 10SM FEW200 SCT250 30/23 A2998 RMK AO2 SLP140 T03000233
KMDW 181253Z 24014KT 10SM SCT250 28/23 A2998 RMK AO2 SLP139 T02830233
KMDW 181153Z 23011KT 10SM SCT250 28/23 A2997 RMK AO2 SLP134 T02780228 10283 20261 53007
KMDW 181053Z 22009KT 10SM SCT250 27/23 A2996 RMK AO2 SLP133 T02670228
KMDW 180953Z 21009KT 10SM FEW250 27/23 A2995 RMK AO2 SLP129 T02670228
KMDW 180853Z 21008KT 10SM FEW250 27/23 A2995 RMK AO2 SLP127 T02670233 58005
KMDW 180753Z 22009KT 10SM FEW250 27/23 A2995 RMK AO2 SLP128 T02720233
KMDW 180653Z 22010KT 10SM SCT250 28/23 A2996 RMK AO2 SLP131 T02780228
KMDW 180553Z 21009KT 10SM SCT250 28/22 A2996 RMK AO2 SLP132 T02830222 10317 20283 403500256 58003
KMDW 180453Z 20009KT 10SM BKN250 29/22 A2997 RMK AO2 SLP135 T02890217
KMDW 180353Z 21010KT 10SM SCT250 29/21 A2997 RMK AO2 SLP136 T02940211
KMDW 180253Z 21007KT 10SM BKN250 30/21 A2997 RMK AO2 SLP136 T03000211 53012
KMDW 180153Z 22009KT 10SM BKN250 31/23 A2995 RMK AO2 SLP129 T03060228
KMDW 180053Z 23010KT 10SM FEW055 BKN250 31/23 A2994 RMK AO2 SLP126 T03110233
KMDW 172353Z 21011KT 10SM FEW055 FEW110 BKN250 32/22 A2994 RMK AO2 SLP124 T03170222 10350 20311 58009
KMDW 172253Z 22011G17KT 10SM FEW055 FEW110 BKN250 31/23 A2995 RMK AO2 SLP128 TCU DSNT E AND SW T03110228
KMDW 172153Z 22012KT 10SM FEW055 SCT110 BKN250 32/22 A2997 RMK AO2 PK WND 23028/2137 SLP135 CB DSNT S T03220222
KMDW 172053Z 22015KT 10SM SCT055 BKN070 BKN140 BKN250 34/22 A2996 RMK AO2 LTG DSNT SW SLP133 CB DSNT SW T03440217 58009
KMDW 171953Z 21013KT 10SM SCT055 BKN070 BKN250 34/21 A2998 RMK AO2 SLP136 T03440211
KMDW 171853Z 21014G21KT 10SM SCT050 BKN250 34/21 A2999 RMK AO2 SLP140 T03390211
KMDW 171753Z 20009KT 10SM SCT046 BKN250 34/23 A2999 RMK AO2 SLP141 T03390233 10339 20267 58008
KMDW 171653Z 22010KT 10SM FEW040 FEW065 BKN250 33/23 A3000 RMK AO2 SLP147 T03280228
KMDW 171553Z 22009KT 10SM FEW065 BKN250 32/23 A3001 RMK AO2 SLP149 T03170228
KMDW 171453Z 25012KT 10SM FEW065 BKN250 31/23 A3002 RMK AO2 SLP150 T03060228 51009
KMDW 171353Z 23008KT 10SM BKN250 29/23 A3002 RMK AO2 SLP150 T02940228
KMDW 171253Z 23007KT 10SM BKN250 28/23 A3000 RMK AO2 SLP146 T02830228
KMDW 171153Z 21008KT 10SM BKN250 27/22 A2999 RMK AO2 SLP142 T02670222 10283 20256 50008
KMDW 171053Z 22008KT 10SM BKN250 26/22 A3000 RMK AO2 SLP144 T02610217
KMDW 170953Z 22008KT 10SM SCT250 26/22 A2999 RMK AO2 SLP140 T02610217
KMDW 170853Z 21008KT 10SM BKN250 27/22 A2997 RMK AO2 SLP134 T02670217 51007
KMDW 170753Z 21009KT 10SM BKN250 27/22 A2997 RMK AO2 SLP133 T02720217
KMDW 170653Z 21009KT 10SM BKN250 28/22 A2996 RMK AO2 SLP134 T02780222
KMDW 170553Z 21008KT 10SM SCT250 28/22 A2995 RMK AO2 SLP128 T02830222 10322 20283 403390211 58001
KMDW 170453Z 20008KT 10SM SCT250 28/23 A2994 RMK AO2 SLP124 T02830228
KMDW 170353Z 17007KT 10SM BKN250 29/22 A2996 RMK AO2 SLP130 T02940222